createdAt,value
2023-06-04T00:02:04.839Z,22.36
2023-06-04T00:04:31.690Z,22.40
2023-06-04T00:06:58.428Z,22.42
2023-06-04T00:09:25.342Z,22.39
2023-06-04T00:11:52.196Z,22.40
2023-06-04T00:14:19.109Z,22.37
2023-06-04T00:16:46.194Z,22.32
2023-06-04T00:19:13.053Z,22.29
2023-06-04T00:21:39.985Z,22.26
2023-06-04T00:24:07.214Z,22.28
2023-06-04T00:26:34.596Z,22.30
2023-06-04T00:29:01.951Z,22.25
2023-06-04T00:31:28.831Z,22.27
2023-06-04T00:33:55.659Z,22.26
2023-06-04T00:36:22.613Z,22.18
2023-06-04T00:38:49.421Z,22.21
2023-06-04T00:41:16.312Z,22.21
2023-06-04T00:43:46.763Z,22.21
2023-06-04T00:46:19.573Z,22.19
2023-06-04T00:48:46.554Z,22.14
2023-06-04T00:51:13.997Z,22.10
2023-06-04T00:53:41.029Z,22.02
2023-06-04T00:56:08.104Z,22.05
2023-06-04T00:58:44.072Z,22.04
2023-06-04T01:01:41.896Z,22.00
2023-06-04T01:04:17.240Z,21.81
2023-06-04T01:06:52.334Z,21.71
2023-06-04T01:09:19.906Z,21.62
2023-06-04T01:11:46.704Z,21.47
2023-06-04T01:14:13.656Z,21.37
2023-06-04T01:17:02.752Z,21.39
2023-06-04T01:19:55.696Z,21.33
2023-06-04T01:22:41.444Z,21.19
2023-06-04T01:25:21.881Z,21.09
2023-06-04T01:27:56.943Z,21.08
2023-06-04T01:30:30.964Z,20.98
2023-06-04T01:32:58.548Z,20.97
2023-06-04T01:35:29.042Z,20.96
2023-06-04T01:37:56.887Z,20.96
2023-06-04T01:40:24.715Z,20.88
2023-06-04T01:42:51.564Z,20.80
2023-06-04T01:45:18.647Z,20.80
2023-06-04T01:47:45.562Z,20.73
2023-06-04T01:50:14.168Z,20.74
2023-06-04T01:52:41.634Z,20.75
2023-06-04T01:55:10.352Z,20.67
2023-06-04T01:57:37.557Z,20.72
2023-06-04T02:00:06.382Z,20.59
2023-06-04T02:02:44.060Z,20.67
2023-06-04T02:05:11.583Z,20.67
2023-06-04T02:07:43.521Z,20.66
2023-06-04T02:10:11.279Z,20.69
2023-06-04T02:12:42.626Z,20.57
2023-06-04T02:15:11.973Z,20.58
2023-06-04T02:17:41.231Z,20.57
2023-06-04T02:20:11.122Z,20.51
2023-06-04T02:22:38.742Z,20.41
2023-06-04T02:25:06.772Z,20.33
2023-06-04T02:27:33.581Z,20.18
2023-06-04T02:30:00.830Z,20.16
2023-06-04T02:32:27.848Z,20.16
2023-06-04T02:34:55.588Z,20.17
2023-06-04T02:37:23.513Z,20.13
2023-06-04T02:39:50.429Z,20.08
2023-06-04T02:42:17.386Z,20.13
2023-06-04T02:44:44.264Z,20.14
2023-06-04T02:47:11.109Z,20.10
2023-06-04T02:49:38.976Z,20.20
2023-06-04T02:52:06.434Z,20.12
2023-06-04T02:54:33.300Z,20.16
2023-06-04T02:57:01.044Z,20.23
2023-06-04T02:59:27.874Z,20.33
2023-06-04T03:01:55.601Z,20.33
2023-06-04T03:04:22.727Z,20.28
2023-06-04T03:06:53.749Z,20.33
2023-06-04T03:09:20.546Z,20.30
2023-06-04T03:11:47.335Z,20.41
2023-06-04T03:14:14.195Z,20.22
2023-06-04T03:16:41.181Z,20.23
2023-06-04T03:19:08.111Z,20.18
2023-06-04T03:21:35.240Z,20.16
2023-06-04T03:24:02.255Z,20.20
2023-06-04T03:26:29.291Z,20.13
2023-06-04T03:28:56.208Z,20.06
2023-06-04T03:31:23.183Z,19.95
2023-06-04T03:33:50.836Z,19.89
2023-06-04T03:36:17.779Z,19.82
2023-06-04T03:38:46.975Z,19.89
2023-06-04T03:41:14.564Z,19.85
2023-06-04T03:43:42.614Z,19.88
2023-06-04T03:46:11.710Z,19.89
2023-06-04T03:48:38.530Z,19.98
2023-06-04T03:51:05.739Z,19.91
2023-06-04T03:53:34.196Z,19.96
2023-06-04T03:56:01.989Z,20.02
2023-06-04T03:58:29.840Z,20.06
2023-06-04T04:00:58.354Z,20.05
2023-06-04T04:03:25.375Z,20.07
2023-06-04T04:05:52.672Z,20.09
2023-06-04T04:08:22.348Z,20.09
2023-06-04T04:10:49.752Z,20.12
2023-06-04T04:13:16.558Z,20.13
2023-06-04T04:15:43.320Z,20.06
2023-06-04T04:18:11.922Z,19.94
2023-06-04T04:20:40.375Z,19.88
2023-06-04T04:23:10.584Z,19.73
2023-06-04T04:25:40.372Z,19.80
2023-06-04T04:28:08.279Z,19.85
2023-06-04T04:30:37.132Z,19.92
2023-06-04T04:33:09.164Z,19.86
2023-06-04T04:35:46.197Z,19.73
2023-06-04T04:38:18.346Z,19.56
2023-06-04T04:40:53.236Z,19.45
2023-06-04T04:43:34.288Z,19.50
2023-06-04T04:46:27.283Z,19.43
2023-06-04T04:48:54.714Z,19.40
2023-06-04T04:51:21.661Z,19.50
2023-06-04T04:53:48.556Z,19.47
2023-06-04T04:56:16.163Z,19.52
2023-06-04T04:58:47.311Z,19.58
2023-06-04T05:01:14.194Z,19.59
2023-06-04T05:03:42.589Z,19.60
2023-06-04T05:06:11.602Z,19.53
2023-06-04T05:08:38.707Z,19.57
2023-06-04T05:11:06.211Z,19.64
2023-06-04T05:13:33.963Z,19.66
2023-06-04T05:16:07.773Z,19.57
2023-06-04T05:18:42.485Z,19.54
2023-06-04T05:21:13.228Z,19.47
2023-06-04T05:23:49.317Z,19.31
2023-06-04T05:26:19.036Z,19.25
2023-06-04T05:28:46.487Z,19.25
2023-06-04T05:31:17.000Z,19.23
2023-06-04T05:33:43.942Z,19.35
2023-06-04T05:36:15.806Z,19.26
2023-06-04T05:38:58.365Z,19.25
2023-06-04T05:41:30.037Z,19.26
2023-06-04T05:43:58.411Z,19.23
2023-06-04T05:46:25.253Z,19.29
2023-06-04T05:48:52.876Z,19.37
2023-06-04T05:51:21.186Z,19.44
2023-06-04T05:53:48.304Z,19.46
2023-06-04T05:56:16.173Z,19.44
2023-06-04T05:58:43.152Z,19.48
2023-06-04T06:01:11.663Z,19.40
2023-06-04T06:03:38.652Z,19.45
2023-06-04T06:06:06.916Z,19.48
2023-06-04T06:08:34.014Z,19.53
2023-06-04T06:11:01.413Z,19.71
2023-06-04T06:13:28.574Z,19.82
2023-06-04T06:15:56.964Z,19.87
2023-06-04T06:18:23.927Z,19.93
2023-06-04T06:20:50.816Z,20.15
2023-06-04T06:23:20.069Z,20.25
2023-06-04T06:25:47.373Z,20.40
2023-06-04T06:28:19.976Z,20.48
2023-06-04T06:30:48.766Z,20.51
2023-06-04T06:33:15.987Z,20.56
2023-06-04T06:35:42.993Z,20.62
2023-06-04T06:38:09.731Z,20.46
2023-06-04T06:40:36.593Z,20.33
2023-06-04T06:43:03.574Z,20.37
2023-06-04T06:45:30.446Z,20.37
2023-06-04T06:47:57.429Z,20.33
2023-06-04T06:50:24.348Z,20.47
2023-06-04T06:52:51.093Z,20.82
2023-06-04T06:55:18.015Z,20.82
2023-06-04T06:57:45.823Z,20.94
2023-06-04T07:00:13.103Z,21.18
2023-06-04T07:02:40.010Z,21.32
2023-06-04T07:05:07.166Z,21.46
2023-06-04T07:07:33.980Z,21.54
2023-06-04T07:10:01.054Z,21.77
2023-06-04T07:12:27.882Z,21.98
2023-06-04T07:14:54.692Z,22.04
2023-06-04T07:17:21.505Z,21.99
2023-06-04T07:19:48.417Z,22.11
2023-06-04T07:22:16.868Z,22.20
2023-06-04T07:24:43.892Z,22.35
2023-06-04T07:27:12.847Z,22.54
2023-06-04T07:29:39.664Z,22.58
2023-06-04T07:32:07.369Z,22.64
2023-06-04T07:34:34.404Z,22.70
2023-06-04T07:37:01.192Z,22.92
2023-06-04T07:39:27.980Z,23.05
2023-06-04T07:41:55.172Z,23.19
2023-06-04T07:44:21.923Z,23.24
2023-06-04T07:46:49.488Z,23.22
2023-06-04T07:49:16.750Z,23.33
2023-06-04T07:51:43.609Z,23.40
2023-06-04T07:54:11.373Z,23.38
2023-06-04T07:56:38.993Z,23.36
2023-06-04T07:59:05.866Z,23.48
2023-06-04T08:01:32.797Z,23.41
2023-06-04T08:04:02.996Z,23.28
2023-06-04T08:06:30.110Z,23.40
2023-06-04T08:08:56.910Z,23.41
2023-06-04T08:11:31.071Z,23.61
2023-06-04T08:14:00.900Z,23.65
2023-06-04T08:16:27.755Z,23.59
2023-06-04T08:18:54.594Z,23.55
2023-06-04T08:21:28.627Z,23.64
2023-06-04T08:23:56.568Z,23.70
2023-06-04T08:26:24.238Z,23.82
2023-06-04T08:28:52.803Z,23.84
2023-06-04T08:31:19.818Z,23.88
2023-06-04T08:33:47.539Z,23.87
2023-06-04T08:36:15.228Z,23.79
2023-06-04T08:38:42.110Z,23.94
2023-06-04T08:41:23.996Z,23.94
2023-06-04T08:43:51.997Z,23.97
2023-06-04T08:46:20.011Z,24.01
2023-06-04T08:48:47.328Z,24.07
2023-06-04T08:51:15.149Z,24.18
2023-06-04T08:53:43.750Z,24.27
2023-06-04T08:56:10.683Z,24.20
2023-06-04T08:58:41.398Z,24.29
2023-06-04T09:01:09.462Z,24.35
2023-06-04T09:03:38.364Z,24.40
2023-06-04T09:06:06.967Z,24.43
2023-06-04T09:08:37.957Z,24.56
2023-06-04T09:11:09.219Z,24.61
2023-06-04T09:13:37.112Z,24.74
2023-06-04T09:16:04.998Z,24.67
2023-06-04T09:18:31.884Z,24.71
2023-06-04T09:21:17.147Z,24.71
2023-06-04T09:23:48.453Z,24.72
2023-06-04T09:26:15.518Z,24.90
2023-06-04T09:28:43.738Z,24.78
2023-06-04T09:31:17.522Z,24.87
2023-06-04T09:33:50.009Z,24.90
2023-06-04T09:36:17.774Z,24.95
2023-06-04T09:38:44.918Z,24.77
2023-06-04T09:41:20.707Z,24.69
2023-06-04T09:43:47.605Z,24.78
2023-06-04T09:46:16.515Z,24.64
2023-06-04T09:48:44.603Z,24.83
2023-06-04T09:51:21.991Z,24.87
2023-06-04T09:53:57.116Z,25.04
2023-06-04T09:56:24.070Z,24.99
2023-06-04T09:58:51.299Z,25.25
2023-06-04T10:01:19.312Z,24.99
2023-06-04T10:03:52.740Z,24.88
2023-06-04T10:06:23.885Z,24.91
2023-06-04T10:08:51.965Z,25.00
2023-06-04T10:11:27.249Z,25.14
2023-06-04T10:14:18.939Z,25.24
2023-06-04T10:16:46.752Z,25.32
2023-06-04T10:19:14.132Z,25.44
2023-06-04T10:21:41.157Z,25.53
2023-06-04T10:24:08.913Z,25.46
2023-06-04T10:26:39.393Z,25.32
2023-06-04T10:29:06.963Z,25.37
2023-06-04T10:31:34.214Z,25.45
2023-06-04T10:34:01.850Z,25.69
2023-06-04T10:36:29.970Z,25.49
2023-06-04T10:38:57.077Z,25.57
2023-06-04T10:41:24.723Z,25.64
2023-06-04T10:44:01.566Z,25.54
2023-06-04T10:46:41.075Z,25.54
2023-06-04T10:49:11.121Z,25.63
2023-06-04T10:51:38.377Z,25.49
2023-06-04T10:54:05.954Z,25.61
2023-06-04T10:56:35.041Z,25.65
2023-06-04T10:59:13.831Z,25.66
2023-06-04T11:01:41.265Z,25.64
2023-06-04T11:04:08.167Z,25.64
2023-06-04T11:06:37.018Z,25.74
2023-06-04T11:09:06.887Z,25.73
2023-06-04T11:11:33.922Z,25.62
2023-06-04T11:14:17.209Z,25.50
2023-06-04T11:16:44.039Z,25.53
2023-06-04T11:19:11.017Z,25.61
2023-06-04T11:21:39.075Z,25.64
2023-06-04T11:24:06.488Z,25.67
2023-06-04T11:26:34.490Z,25.78
2023-06-04T11:29:02.055Z,25.92
2023-06-04T11:31:29.036Z,26.03
2023-06-04T11:33:56.022Z,26.08
2023-06-04T11:36:29.829Z,26.00
2023-06-04T11:38:58.869Z,25.80
2023-06-04T11:41:29.004Z,25.89
2023-06-04T11:43:57.471Z,25.79
2023-06-04T11:46:24.948Z,25.67
2023-06-04T11:48:54.085Z,25.82
2023-06-04T11:51:22.313Z,25.78
2023-06-04T11:53:49.441Z,25.80
2023-06-04T11:56:17.248Z,26.06
2023-06-04T11:58:44.894Z,26.12
2023-06-04T12:01:12.529Z,26.02
2023-06-04T12:03:41.690Z,26.17
2023-06-04T12:06:18.794Z,26.16
2023-06-04T12:08:51.039Z,26.25
2023-06-04T12:11:32.370Z,26.04
2023-06-04T12:14:01.539Z,26.09
2023-06-04T12:16:28.695Z,26.05
2023-06-04T12:19:13.127Z,26.08
2023-06-04T12:21:40.699Z,26.03
2023-06-04T12:24:12.236Z,25.68
2023-06-04T12:26:41.723Z,25.47
2023-06-04T12:29:17.181Z,25.72
2023-06-04T12:31:46.726Z,25.46
2023-06-04T12:34:18.846Z,25.52
2023-06-04T12:36:45.739Z,25.63
2023-06-04T12:39:12.651Z,25.44
2023-06-04T12:41:45.767Z,25.63
2023-06-04T12:44:12.651Z,25.51
2023-06-04T12:46:39.658Z,25.67
2023-06-04T12:49:06.800Z,25.78
2023-06-04T12:51:33.631Z,25.97
2023-06-04T12:54:00.722Z,25.58
2023-06-04T12:56:27.859Z,25.79
2023-06-04T12:58:54.756Z,25.73
2023-06-04T13:01:21.622Z,25.51
2023-06-04T13:03:53.310Z,25.47
2023-06-04T13:06:20.063Z,25.11
2023-06-04T13:08:47.153Z,25.01
2023-06-04T13:11:14.349Z,24.80
2023-06-04T13:13:41.234Z,24.69
2023-06-04T13:16:08.967Z,24.47
2023-06-04T13:18:35.970Z,24.40
2023-06-04T13:21:02.943Z,24.41
2023-06-04T13:23:45.433Z,24.33
2023-06-04T13:26:17.353Z,24.11
2023-06-04T13:28:48.230Z,24.15
2023-06-04T13:31:15.252Z,24.07
2023-06-04T13:33:46.117Z,24.06
2023-06-04T13:36:16.241Z,24.12
2023-06-04T13:38:46.382Z,24.11
2023-06-04T13:41:13.285Z,24.09
2023-06-04T13:43:40.236Z,24.07
2023-06-04T13:46:12.249Z,24.16
2023-06-04T13:48:39.547Z,24.21
2023-06-04T13:51:06.590Z,24.19
2023-06-04T13:53:33.682Z,24.30
2023-06-04T13:56:00.712Z,24.26
2023-06-04T13:58:28.008Z,24.36
2023-06-04T14:00:54.905Z,24.44
2023-06-04T14:03:22.003Z,24.51
2023-06-04T14:05:49.048Z,24.59
2023-06-04T14:08:15.926Z,24.38
2023-06-04T14:10:42.946Z,24.40
2023-06-04T14:13:10.625Z,24.15
2023-06-04T14:15:37.882Z,24.09
2023-06-04T14:18:06.130Z,24.27
2023-06-04T14:20:33.386Z,24.18
2023-06-04T14:23:00.988Z,24.23
2023-06-04T14:25:28.704Z,24.35
2023-06-04T14:27:55.784Z,24.42
2023-06-04T14:30:22.765Z,24.35
2023-06-04T14:32:49.892Z,24.16
2023-06-04T14:35:16.881Z,24.21
2023-06-04T14:37:43.931Z,24.26
2023-06-04T14:40:11.169Z,24.27
2023-06-04T14:42:38.071Z,24.12
2023-06-04T14:45:05.232Z,24.09
2023-06-04T14:47:32.204Z,24.05
2023-06-04T14:49:59.006Z,24.04
2023-06-04T14:52:25.835Z,24.07
2023-06-04T14:54:55.467Z,23.93
2023-06-04T14:57:22.402Z,24.17
2023-06-04T14:59:49.801Z,23.94
2023-06-04T15:02:20.593Z,23.96
2023-06-04T15:04:48.221Z,23.98
2023-06-04T15:07:16.157Z,23.87
2023-06-04T15:09:42.910Z,23.91
2023-06-04T15:12:09.683Z,24.05
2023-06-04T15:14:36.561Z,24.24
2023-06-04T15:17:03.465Z,24.37
2023-06-04T15:19:30.254Z,24.53
2023-06-04T15:21:57.269Z,24.70
2023-06-04T15:24:24.092Z,24.60
2023-06-04T15:26:51.402Z,24.90
2023-06-04T15:29:18.426Z,24.99
2023-06-04T15:31:45.405Z,25.11
2023-06-04T15:34:12.305Z,25.40
2023-06-04T15:36:39.582Z,25.48
2023-06-04T15:39:06.653Z,25.37
2023-06-04T15:41:33.557Z,25.39
2023-06-04T15:44:02.253Z,25.27
2023-06-04T15:46:31.074Z,25.40
2023-06-04T15:48:58.074Z,25.59
2023-06-04T15:51:24.926Z,25.39
2023-06-04T15:53:51.999Z,25.35
2023-06-04T15:56:20.070Z,25.44
2023-06-04T15:58:46.987Z,25.31
2023-06-04T16:01:13.934Z,25.49
2023-06-04T16:03:41.199Z,25.45
2023-06-04T16:06:08.210Z,25.51
2023-06-04T16:08:35.225Z,25.44
2023-06-04T16:11:01.986Z,25.58
2023-06-04T16:13:28.845Z,25.48
2023-06-04T16:15:56.716Z,25.47
2023-06-04T16:18:23.665Z,25.61
2023-06-04T16:20:50.902Z,25.67
2023-06-04T16:23:18.056Z,25.73
2023-06-04T16:25:45.179Z,25.56
2023-06-04T16:28:12.117Z,25.63
2023-06-04T16:30:39.002Z,25.47
2023-06-04T16:33:07.407Z,25.66
2023-06-04T16:35:34.544Z,25.57
2023-06-04T16:38:01.400Z,25.52
2023-06-04T16:40:28.247Z,25.53
2023-06-04T16:42:55.540Z,25.53
2023-06-04T16:45:22.478Z,25.55
2023-06-04T16:47:50.035Z,25.60
2023-06-04T16:50:17.595Z,25.61
2023-06-04T16:52:44.843Z,25.95
2023-06-04T16:55:12.032Z,25.73
2023-06-04T16:57:39.137Z,25.37
2023-06-04T17:00:21.280Z,25.27
2023-06-04T17:02:53.386Z,25.05
2023-06-04T17:05:24.343Z,24.86
2023-06-04T17:07:53.126Z,25.01
2023-06-04T17:10:20.536Z,25.01
2023-06-04T17:12:47.457Z,25.06
2023-06-04T17:15:14.298Z,25.03
2023-06-04T17:17:41.138Z,25.12
2023-06-04T17:20:08.473Z,25.12
2023-06-04T17:22:35.398Z,25.16
2023-06-04T17:25:02.239Z,25.12
2023-06-04T17:27:28.983Z,25.12
2023-06-04T17:29:55.811Z,25.30
2023-06-04T17:32:22.686Z,25.31
2023-06-04T17:34:51.221Z,25.47
2023-06-04T17:37:18.098Z,25.39
2023-06-04T17:39:45.360Z,25.37
2023-06-04T17:42:12.134Z,25.27
2023-06-04T17:44:38.987Z,25.13
2023-06-04T17:47:06.992Z,25.12
2023-06-04T17:49:34.157Z,25.12
2023-06-04T17:52:01.048Z,25.11
2023-06-04T17:54:27.914Z,25.04
2023-06-04T17:56:54.672Z,25.08
2023-06-04T17:59:21.491Z,25.06
2023-06-04T18:01:48.536Z,24.91
2023-06-04T18:04:16.671Z,24.77
2023-06-04T18:06:43.561Z,24.67
2023-06-04T18:09:10.530Z,24.68
2023-06-04T18:11:37.339Z,24.65
2023-06-04T18:14:06.218Z,24.60
2023-06-04T18:16:33.258Z,24.46
2023-06-04T18:19:00.092Z,24.38
2023-06-04T18:21:27.083Z,24.30
2023-06-04T18:23:54.507Z,24.18
2023-06-04T18:26:21.793Z,24.25
2023-06-04T18:28:48.621Z,24.15
2023-06-04T18:31:15.541Z,24.14
2023-06-04T18:34:01.354Z,24.13
2023-06-04T18:36:34.724Z,24.11
2023-06-04T18:39:10.421Z,24.06
2023-06-04T18:41:37.365Z,24.05
2023-06-04T18:44:04.252Z,23.97
2023-06-04T18:46:31.139Z,23.90
2023-06-04T18:49:00.256Z,23.82
2023-06-04T18:51:27.368Z,23.73
2023-06-04T18:53:54.137Z,23.55
2023-06-04T18:56:22.313Z,23.67
2023-06-04T18:58:51.734Z,23.66
2023-06-04T19:01:18.896Z,23.66
2023-06-04T19:03:46.342Z,23.64
2023-06-04T19:06:13.200Z,23.57
2023-06-04T19:08:40.032Z,23.56
2023-06-04T19:11:08.402Z,23.60
2023-06-04T19:13:35.345Z,23.55
2023-06-04T19:16:02.135Z,23.51
2023-06-04T19:18:29.038Z,23.48
2023-06-04T19:20:55.955Z,23.46
2023-06-04T19:23:22.760Z,23.48
2023-06-04T19:25:49.574Z,23.45
2023-06-04T19:28:17.811Z,23.44
2023-06-04T19:30:45.336Z,23.42
2023-06-04T19:33:12.991Z,23.42
2023-06-04T19:35:39.850Z,23.39
2023-06-04T19:38:06.929Z,23.36
2023-06-04T19:40:34.767Z,23.37
2023-06-04T19:43:01.659Z,23.36
2023-06-04T19:45:28.524Z,23.36
2023-06-04T19:47:55.419Z,23.35
2023-06-04T19:50:22.363Z,23.37
2023-06-04T19:52:49.285Z,23.39
2023-06-04T19:55:17.566Z,23.35
2023-06-04T19:57:45.604Z,23.35
2023-06-04T20:00:12.971Z,23.31
2023-06-04T20:02:41.586Z,23.20
2023-06-04T20:05:08.908Z,23.22
2023-06-04T20:07:35.860Z,23.16
2023-06-04T20:10:03.228Z,23.09
2023-06-04T20:12:30.113Z,23.13
2023-06-04T20:14:56.988Z,23.12
2023-06-04T20:17:23.930Z,23.08
2023-06-04T20:19:51.337Z,23.09
2023-06-04T20:22:18.170Z,23.10
2023-06-04T20:24:45.017Z,23.11
2023-06-04T20:27:12.209Z,23.07
2023-06-04T20:29:39.111Z,23.06
2023-06-04T20:32:06.407Z,23.06
2023-06-04T20:34:33.264Z,22.98
2023-06-04T20:37:04.035Z,22.95
2023-06-04T20:39:35.283Z,22.92
2023-06-04T20:42:02.157Z,22.92
2023-06-04T20:44:29.684Z,22.94
2023-06-04T20:46:56.913Z,22.97
2023-06-04T20:49:23.932Z,22.91
2023-06-04T20:51:50.786Z,22.88
2023-06-04T20:54:17.617Z,22.85
2023-06-04T20:56:44.591Z,22.86
2023-06-04T20:59:11.470Z,22.88
2023-06-04T21:01:38.365Z,22.87
2023-06-04T21:04:05.588Z,22.87
2023-06-04T21:06:32.573Z,22.88
2023-06-04T21:08:59.456Z,22.88
2023-06-04T21:11:28.000Z,22.85
2023-06-04T21:13:54.790Z,22.87
2023-06-04T21:16:21.579Z,22.87
2023-06-04T21:18:50.912Z,22.88
2023-06-04T21:21:17.924Z,22.89
2023-06-04T21:23:44.975Z,22.91
2023-06-04T21:26:11.956Z,22.91
2023-06-04T21:28:38.776Z,22.92
2023-06-04T21:31:05.771Z,22.88
2023-06-04T21:33:32.490Z,22.90
2023-06-04T21:35:59.343Z,22.90
2023-06-04T21:38:27.502Z,22.91
2023-06-04T21:40:54.878Z,22.89
2023-06-04T21:43:21.880Z,22.90
2023-06-04T21:45:49.122Z,22.90
2023-06-04T21:48:16.109Z,22.89
2023-06-04T21:50:43.102Z,22.86
2023-06-04T21:53:10.236Z,22.82
2023-06-04T21:55:37.029Z,22.83
2023-06-04T21:58:04.670Z,22.83
2023-06-04T22:00:31.568Z,22.81
2023-06-04T22:02:58.550Z,22.79
2023-06-04T22:05:25.446Z,22.79
2023-06-04T22:07:52.302Z,22.79
2023-06-04T22:10:19.111Z,22.81
2023-06-04T22:12:45.952Z,22.74
2023-06-04T22:15:12.862Z,22.73
2023-06-04T22:17:39.665Z,22.67
2023-06-04T22:20:07.312Z,22.72
2023-06-04T22:22:34.102Z,22.71
2023-06-04T22:25:00.927Z,22.63
2023-06-04T22:27:27.706Z,22.63
2023-06-04T22:29:54.650Z,22.59
2023-06-04T22:32:21.525Z,22.59
2023-06-04T22:34:48.533Z,22.58
2023-06-04T22:37:15.914Z,22.57
2023-06-04T22:39:42.858Z,22.58
2023-06-04T22:42:09.713Z,22.56
2023-06-04T22:44:36.637Z,22.59
2023-06-04T22:47:03.600Z,22.58
2023-06-04T22:49:30.599Z,22.53
2023-06-04T22:51:57.969Z,22.53
2023-06-04T22:54:24.789Z,22.52
2023-06-04T22:56:51.563Z,22.50
2023-06-04T22:59:18.477Z,22.51
2023-06-04T23:01:45.514Z,22.48
2023-06-04T23:04:13.666Z,22.49
2023-06-04T23:06:40.519Z,22.50
2023-06-04T23:09:09.752Z,22.50
2023-06-04T23:11:36.616Z,22.50
2023-06-04T23:14:03.462Z,22.50
2023-06-04T23:16:30.351Z,22.49
2023-06-04T23:18:57.199Z,22.49
2023-06-04T23:21:24.332Z,22.40
2023-06-04T23:23:51.335Z,22.36
2023-06-04T23:26:18.252Z,22.18
2023-06-04T23:28:45.000Z,22.15
2023-06-04T23:31:11.904Z,22.09
2023-06-04T23:33:38.896Z,22.13
2023-06-04T23:36:05.852Z,22.12
2023-06-04T23:38:32.682Z,22.10
2023-06-04T23:40:59.465Z,22.10
2023-06-04T23:43:26.280Z,22.02
2023-06-04T23:45:53.114Z,22.07
2023-06-04T23:48:19.993Z,22.05
2023-06-04T23:50:47.250Z,22.04
2023-06-04T23:53:14.052Z,22.05
2023-06-04T23:55:41.007Z,21.95
2023-06-04T23:58:07.864Z,21.90
